sensor_id;sensor_type;location;lat;lon;timestamp;pressure;altitude;pressure_sealevel;temperature;humidity
77205;BME280;67992;46.618;18.850;2023-02-22T00:00:55;100309.38;;;15.31;42.59
77205;BME280;67992;46.618;18.850;2023-02-22T00:03:28;100317.28;;;15.33;42.08
77205;BME280;67992;46.618;18.850;2023-02-22T00:06:05;100320.09;;;15.31;42.33
77205;BME280;67992;46.618;18.850;2023-02-22T00:08:36;100317.44;;;15.31;42.44
77205;BME280;67992;46.618;18.850;2023-02-22T00:11:05;100318.59;;;15.29;42.23
77205;BME280;67992;46.618;18.850;2023-02-22T00:13:37;100322.78;;;15.31;42.55
77205;BME280;67992;46.618;18.850;2023-02-22T00:16:03;100323.81;;;15.30;42.77
77205;BME280;67992;46.618;18.850;2023-02-22T00:18:29;100335.34;;;15.31;41.88
77205;BME280;67992;46.618;18.850;2023-02-22T00:20:56;100329.19;;;15.30;42.59
77205;BME280;67992;46.618;18.850;2023-02-22T00:23:29;100327.50;;;15.29;42.94
77205;BME280;67992;46.618;18.850;2023-02-22T00:25:56;100332.00;;;15.29;42.37
77205;BME280;67992;46.618;18.850;2023-02-22T00:28:25;100333.84;;;15.28;42.50
77205;BME280;67992;46.618;18.850;2023-02-22T00:30:51;100324.16;;;15.27;42.48
77205;BME280;67992;46.618;18.850;2023-02-22T00:33:22;100322.31;;;15.28;42.53
77205;BME280;67992;46.618;18.850;2023-02-22T00:35:48;100322.31;;;15.28;42.55
77205;BME280;67992;46.618;18.850;2023-02-22T00:38:16;100326.16;;;15.25;42.04
77205;BME280;67992;46.618;18.850;2023-02-22T00:40:42;100323.50;;;15.25;42.74
77205;BME280;67992;46.618;18.850;2023-02-22T00:43:09;100326.00;;;15.27;42.51
77205;BME280;67992;46.618;18.850;2023-02-22T00:45:38;100323.81;;;15.22;42.89
77205;BME280;67992;46.618;18.850;2023-02-22T00:48:08;100332.34;;;15.26;42.35
77205;BME280;67992;46.618;18.850;2023-02-22T00:50:36;100331.53;;;15.25;42.67
77205;BME280;67992;46.618;18.850;2023-02-22T00:53:03;100338.06;;;15.23;42.53
77205;BME280;67992;46.618;18.850;2023-02-22T00:55:34;100333.50;;;15.23;42.26
77205;BME280;67992;46.618;18.850;2023-02-22T00:58:01;100323.31;;;15.18;42.67
77205;BME280;67992;46.618;18.850;2023-02-22T01:00:30;100326.50;;;15.22;42.42
77205;BME280;67992;46.618;18.850;2023-02-22T01:02:59;100307.94;;;15.12;42.10
77205;BME280;67992;46.618;18.850;2023-02-22T01:05:29;100322.97;;;15.22;42.67
77205;BME280;67992;46.618;18.850;2023-02-22T01:07:56;100324.66;;;15.23;42.44
77205;BME280;67992;46.618;18.850;2023-02-22T01:10:24;100318.59;;;15.20;42.39
77205;BME280;67992;46.618;18.850;2023-02-22T01:12:50;100313.94;;;15.14;42.79
77205;BME280;67992;46.618;18.850;2023-02-22T01:15:23;100317.78;;;15.20;42.24
77205;BME280;67992;46.618;18.850;2023-02-22T01:17:51;100314.28;;;15.19;42.83
77205;BME280;67992;46.618;18.850;2023-02-22T01:20:21;100316.97;;;15.19;42.33
77205;BME280;67992;46.618;18.850;2023-02-22T01:22:52;100291.66;;;15.06;41.98
77205;BME280;67992;46.618;18.850;2023-02-22T01:25:23;100310.94;;;15.17;42.07
77205;BME280;67992;46.618;18.850;2023-02-22T01:27:50;100313.44;;;15.19;41.92
77205;BME280;67992;46.618;18.850;2023-02-22T01:30:20;100317.94;;;15.18;42.66
77205;BME280;67992;46.618;18.850;2023-02-22T01:32:46;100316.28;;;15.17;42.77
77205;BME280;67992;46.618;18.850;2023-02-22T01:35:22;100314.59;;;15.16;42.21
77205;BME280;67992;46.618;18.850;2023-02-22T01:37:49;100315.59;;;15.15;42.12
77205;BME280;67992;46.618;18.850;2023-02-22T01:40:53;100320.81;;;15.17;42.36
77205;BME280;67992;46.618;18.850;2023-02-22T01:43:27;100322.81;;;15.15;42.60
77205;BME280;67992;46.618;18.850;2023-02-22T01:46:00;100312.09;;;15.15;42.53
77205;BME280;67992;46.618;18.850;2023-02-22T01:48:48;100316.44;;;15.16;42.10
77205;BME280;67992;46.618;18.850;2023-02-22T01:51:48;100322.66;;;15.16;42.59
77205;BME280;67992;46.618;18.850;2023-02-22T01:54:29;100315.59;;;15.15;42.37
77205;BME280;67992;46.618;18.850;2023-02-22T01:59:39;100296.03;;;15.07;41.92
77205;BME280;67992;46.618;18.850;2023-02-22T02:02:06;100310.25;;;15.15;42.35
77205;BME280;67992;46.618;18.850;2023-02-22T02:04:32;100309.44;;;15.15;42.69
77205;BME280;67992;46.618;18.850;2023-02-22T02:07:04;100302.91;;;15.09;41.95
77205;BME280;67992;46.618;18.850;2023-02-22T02:09:39;100311.41;;;15.13;42.05
77205;BME280;67992;46.618;18.850;2023-02-22T02:12:13;100303.88;;;15.08;41.90
77205;BME280;67992;46.618;18.850;2023-02-22T02:14:43;100285.81;;;15.02;41.81
77205;BME280;67992;46.618;18.850;2023-02-22T02:17:14;100305.41;;;15.11;42.25
77205;BME280;67992;46.618;18.850;2023-02-22T02:22:57;100296.50;;;15.10;42.04
77205;BME280;67992;46.618;18.850;2023-02-22T02:31:25;100307.22;;;15.10;41.68
77205;BME280;67992;46.618;18.850;2023-02-22T02:34:08;100310.94;;;15.09;42.37
77205;BME280;67992;46.618;18.850;2023-02-22T02:39:27;100309.44;;;15.07;41.92
77205;BME280;67992;46.618;18.850;2023-02-22T02:42:06;100305.72;;;15.08;42.58
77205;BME280;67992;46.618;18.850;2023-02-22T02:44:40;100296.88;;;15.07;41.58
77205;BME280;67992;46.618;18.850;2023-02-22T02:47:18;100298.53;;;15.08;42.51
77205;BME280;67992;46.618;18.850;2023-02-22T02:50:17;100296.19;;;15.05;41.97
77205;BME280;67992;46.618;18.850;2023-02-22T02:52:47;100306.75;;;15.07;41.88
77205;BME280;67992;46.618;18.850;2023-02-22T02:55:23;100298.72;;;15.07;41.84
77205;BME280;67992;46.618;18.850;2023-02-22T02:57:53;100298.84;;;15.05;41.79
77205;BME280;67992;46.618;18.850;2023-02-22T03:00:25;100301.53;;;15.05;41.43
77205;BME280;67992;46.618;18.850;2023-02-22T03:11:20;100290.66;;;14.99;42.47
77205;BME280;67992;46.618;18.850;2023-02-22T03:19:29;100292.34;;;15.00;41.82
77205;BME280;67992;46.618;18.850;2023-02-22T03:27:07;100279.28;;;14.97;41.69
77205;BME280;67992;46.618;18.850;2023-02-22T03:29:37;100302.72;;;15.03;42.13
77205;BME280;67992;46.618;18.850;2023-02-22T03:32:10;100295.69;;;15.02;42.33
77205;BME280;67992;46.618;18.850;2023-02-22T03:34:51;100301.91;;;15.02;41.94
77205;BME280;67992;46.618;18.850;2023-02-22T03:37:27;100302.72;;;15.03;41.80
77205;BME280;67992;46.618;18.850;2023-02-22T03:39:58;100308.06;;;15.03;41.50
77205;BME280;67992;46.618;18.850;2023-02-22T03:42:31;100303.88;;;15.00;41.79
77205;BME280;67992;46.618;18.850;2023-02-22T03:45:01;100303.88;;;15.00;42.43
77205;BME280;67992;46.618;18.850;2023-02-22T03:47:41;100305.56;;;15.01;42.47
77205;BME280;67992;46.618;18.850;2023-02-22T03:50:20;100306.56;;;15.00;41.45
77205;BME280;67992;46.618;18.850;2023-02-22T03:52:54;100312.09;;;14.99;41.43
77205;BME280;67992;46.618;18.850;2023-02-22T03:55:20;100296.53;;;14.94;41.53
77205;BME280;67992;46.618;18.850;2023-02-22T03:57:55;100309.25;;;15.00;41.83
77205;BME280;67992;46.618;18.850;2023-02-22T04:00:24;100302.22;;;14.99;41.85
77205;BME280;67992;46.618;18.850;2023-02-22T04:03:12;100316.28;;;15.01;41.36
77205;BME280;67992;46.618;18.850;2023-02-22T04:05:40;100299.38;;;14.93;41.51
77205;BME280;67992;46.618;18.850;2023-02-22T04:08:05;100302.06;;;14.93;41.53
77205;BME280;67992;46.618;18.850;2023-02-22T04:10:31;100310.44;;;14.98;42.56
77205;BME280;67992;46.618;18.850;2023-02-22T04:13:04;100319.31;;;14.98;41.83
77205;BME280;67992;46.618;18.850;2023-02-22T04:15:38;100315.97;;;14.96;41.90
77205;BME280;67992;46.618;18.850;2023-02-22T04:18:04;100314.13;;;14.97;41.45
77205;BME280;67992;46.618;18.850;2023-02-22T04:20:43;100314.47;;;14.94;42.18
77205;BME280;67992;46.618;18.850;2023-02-22T04:23:12;100312.44;;;14.96;42.00
77205;BME280;67992;46.618;18.850;2023-02-22T04:25:41;100320.47;;;14.96;41.96
77205;BME280;67992;46.618;18.850;2023-02-22T04:28:07;100320.47;;;14.96;41.81
77205;BME280;67992;46.618;18.850;2023-02-22T04:30:38;100312.78;;;14.93;41.79
77205;BME280;67992;46.618;18.850;2023-02-22T04:33:06;100300.72;;;14.89;42.41
77205;BME280;67992;46.618;18.850;2023-02-22T04:35:35;100304.91;;;14.91;41.74
77205;BME280;67992;46.618;18.850;2023-02-22T04:38:09;100300.22;;;14.85;41.94
77205;BME280;67992;46.618;18.850;2023-02-22T04:40:34;100312.63;;;14.94;41.47
77205;BME280;67992;46.618;18.850;2023-02-22T04:43:03;100311.78;;;14.94;42.19
77205;BME280;67992;46.618;18.850;2023-02-22T04:45:35;100303.56;;;14.87;41.30
77205;BME280;67992;46.618;18.850;2023-02-22T04:48:01;100313.78;;;14.92;42.20
77205;BME280;67992;46.618;18.850;2023-02-22T04:50:32;100320.81;;;14.93;41.58
77205;BME280;67992;46.618;18.850;2023-02-22T04:52:58;100322.69;;;14.92;42.41
77205;BME280;67992;46.618;18.850;2023-02-22T04:55:29;100324.50;;;14.92;41.93
77205;BME280;67992;46.618;18.850;2023-02-22T04:57:58;100319.16;;;14.92;41.66
77205;BME280;67992;46.618;18.850;2023-02-22T05:00:26;100319.16;;;14.92;41.38
77205;BME280;67992;46.618;18.850;2023-02-22T05:02:52;100324.50;;;14.92;41.75
77205;BME280;67992;46.618;18.850;2023-02-22T05:05:20;100303.72;;;14.86;41.54
77205;BME280;67992;46.618;18.850;2023-02-22T05:07:49;100319.47;;;14.89;41.42
77205;BME280;67992;46.618;18.850;2023-02-22T05:10:18;100314.78;;;14.91;41.67
77205;BME280;67992;46.618;18.850;2023-02-22T05:12:44;100319.16;;;14.92;41.29
77205;BME280;67992;46.618;18.850;2023-02-22T05:15:17;100309.75;;;14.88;41.72
77205;BME280;67992;46.618;18.850;2023-02-22T05:17:46;100310.41;;;14.90;41.94
77205;BME280;67992;46.618;18.850;2023-02-22T05:20:21;100314.13;;;14.89;41.90
77205;BME280;67992;46.618;18.850;2023-02-22T05:22:56;100322.16;;;14.89;41.90
77205;BME280;67992;46.618;18.850;2023-02-22T05:25:30;100307.06;;;14.80;41.98
77205;BME280;67992;46.618;18.850;2023-02-22T05:28:03;100318.63;;;14.88;41.85
77205;BME280;67992;46.618;18.850;2023-02-22T05:30:31;100322.16;;;14.89;41.61
77205;BME280;67992;46.618;18.850;2023-02-22T05:33:01;100327.34;;;14.90;41.65
77205;BME280;67992;46.618;18.850;2023-02-22T05:35:32;100325.84;;;14.88;41.92
77205;BME280;67992;46.618;18.850;2023-02-22T05:38:04;100327.53;;;14.89;41.70
77205;BME280;67992;46.618;18.850;2023-02-22T05:40:36;100337.06;;;14.91;41.91
77205;BME280;67992;46.618;18.850;2023-02-22T05:43:01;100324.50;;;14.92;41.29
77205;BME280;67992;46.618;18.850;2023-02-22T05:45:34;100340.41;;;14.93;41.31
77205;BME280;67992;46.618;18.850;2023-02-22T05:48:03;100336.88;;;14.93;41.75
77205;BME280;67992;46.618;18.850;2023-02-22T05:50:29;100334.38;;;14.91;42.19
77205;BME280;67992;46.618;18.850;2023-02-22T05:52:55;100328.84;;;14.93;41.33
77205;BME280;67992;46.618;18.850;2023-02-22T05:55:24;100335.06;;;14.93;41.54
77205;BME280;67992;46.618;18.850;2023-02-22T05:57:52;100339.41;;;14.94;41.75
77205;BME280;67992;46.618;18.850;2023-02-22T06:00:29;100346.63;;;14.94;41.68
77205;BME280;67992;46.618;18.850;2023-02-22T06:03:04;100352.63;;;14.96;41.63
77205;BME280;67992;46.618;18.850;2023-02-22T06:05:30;100354.47;;;14.95;41.74
77205;BME280;67992;46.618;18.850;2023-02-22T06:07:59;100349.81;;;14.97;41.61
77205;BME280;67992;46.618;18.850;2023-02-22T06:10:25;100347.13;;;14.97;41.44
77205;BME280;67992;46.618;18.850;2023-02-22T06:12:55;100348.63;;;15.00;41.91
77205;BME280;67992;46.618;18.850;2023-02-22T06:15:24;100354.47;;;15.03;41.65
77205;BME280;67992;46.618;18.850;2023-02-22T06:17:57;100361.69;;;15.03;41.35
77205;BME280;67992;46.618;18.850;2023-02-22T06:20:32;100355.13;;;15.05;41.23
77205;BME280;67992;46.618;18.850;2023-02-22T06:23:02;100364.38;;;15.11;40.98
77205;BME280;67992;46.618;18.850;2023-02-22T06:25:29;100364.88;;;15.14;41.48
77205;BME280;67992;46.618;18.850;2023-02-22T06:28:03;100375.28;;;15.17;41.33
77205;BME280;67992;46.618;18.850;2023-02-22T06:30:32;100372.22;;;15.20;41.66
77205;BME280;67992;46.618;18.850;2023-02-22T06:33:01;100368.38;;;15.23;40.94
77205;BME280;67992;46.618;18.850;2023-02-22T06:35:29;100378.44;;;15.21;41.38
77205;BME280;67992;46.618;18.850;2023-02-22T06:37:58;100361.16;;;15.15;40.71
77205;BME280;67992;46.618;18.850;2023-02-22T06:40:26;100373.75;;;15.15;41.65
77205;BME280;67992;46.618;18.850;2023-02-22T06:42:58;100385.63;;;15.20;41.46
77205;BME280;67992;46.618;18.850;2023-02-22T06:45:27;100388.16;;;15.06;42.07
77205;BME280;67992;46.618;18.850;2023-02-22T06:47:58;100386.97;;;15.08;41.88
77205;BME280;67992;46.618;18.850;2023-02-22T06:50:28;100394.19;;;15.16;41.71
77205;BME280;67992;46.618;18.850;2023-02-22T06:52:55;100386.47;;;15.21;41.74
77205;BME280;67992;46.618;18.850;2023-02-22T06:55:29;100393.00;;;15.27;41.82
77205;BME280;67992;46.618;18.850;2023-02-22T06:57:55;100396.22;;;15.30;41.24
77205;BME280;67992;46.618;18.850;2023-02-22T07:00:22;100392.34;;;15.33;41.14
77205;BME280;67992;46.618;18.850;2023-02-22T07:02:49;100392.84;;;15.36;41.15
77205;BME280;67992;46.618;18.850;2023-02-22T07:05:21;100396.19;;;15.38;41.46
77205;BME280;67992;46.618;18.850;2023-02-22T07:07:51;100395.00;;;15.41;41.46
77205;BME280;67992;46.618;18.850;2023-02-22T07:10:24;100398.38;;;15.43;41.14
77205;BME280;67992;46.618;18.850;2023-02-22T07:12:59;100389.31;;;15.44;40.89
77205;BME280;67992;46.618;18.850;2023-02-22T07:15:34;100393.38;;;15.48;40.94
77205;BME280;67992;46.618;18.850;2023-02-22T07:18:06;100393.38;;;15.48;41.06
77205;BME280;67992;46.618;18.850;2023-02-22T07:20:32;100396.53;;;15.51;41.41
77205;BME280;67992;46.618;18.850;2023-02-22T07:23:01;100389.19;;;15.53;40.90
77205;BME280;67992;46.618;18.850;2023-02-22T07:25:26;100391.88;;;15.53;41.20
77205;BME280;67992;46.618;18.850;2023-02-22T07:27:55;100389.19;;;15.53;40.80
77205;BME280;67992;46.618;18.850;2023-02-22T07:30:28;100394.53;;;15.53;41.36
77205;BME280;67992;46.618;18.850;2023-02-22T07:33:05;100388.81;;;15.56;41.16
77205;BME280;67992;46.618;18.850;2023-02-22T07:35:34;100393.84;;;15.59;41.07
77205;BME280;67992;46.618;18.850;2023-02-22T07:38:05;100390.31;;;15.59;40.78
77205;BME280;67992;46.618;18.850;2023-02-22T07:40:33;100392.66;;;15.62;40.66
77205;BME280;67992;46.618;18.850;2023-02-22T07:43:04;100390.66;;;15.64;40.99
77205;BME280;67992;46.618;18.850;2023-02-22T07:45:34;100385.81;;;15.59;41.08
77205;BME280;67992;46.618;18.850;2023-02-22T07:48:01;100380.63;;;15.58;41.21
77205;BME280;67992;46.618;18.850;2023-02-22T07:50:31;100384.97;;;15.59;41.09
77205;BME280;67992;46.618;18.850;2023-02-22T07:53:00;100384.47;;;15.63;41.01
77205;BME280;67992;46.618;18.850;2023-02-22T07:55:29;100389.16;;;15.61;41.04
77205;BME280;67992;46.618;18.850;2023-02-22T07:57:57;100386.81;;;15.58;40.92
77205;BME280;67992;46.618;18.850;2023-02-22T08:00:27;100387.63;;;15.59;41.55
77205;BME280;67992;46.618;18.850;2023-02-22T08:02:56;100392.34;;;15.57;41.04
77205;BME280;67992;46.618;18.850;2023-02-22T08:05:27;100385.66;;;15.53;41.10
77205;BME280;67992;46.618;18.850;2023-02-22T08:07:56;100390.19;;;15.52;41.05
77205;BME280;67992;46.618;18.850;2023-02-22T08:10:26;100389.53;;;15.50;41.86
77205;BME280;67992;46.618;18.850;2023-02-22T08:12:55;100385.00;;;15.51;41.32
77205;BME280;67992;46.618;18.850;2023-02-22T08:15:26;100383.81;;;15.45;41.62
77205;BME280;67992;46.618;18.850;2023-02-22T08:17:59;100387.84;;;15.49;41.71
77205;BME280;67992;46.618;18.850;2023-02-22T08:20:26;100387.84;;;15.49;41.25
77205;BME280;67992;46.618;18.850;2023-02-22T08:22:56;100383.50;;;15.48;41.97
77205;BME280;67992;46.618;18.850;2023-02-22T08:25:25;100395.88;;;15.49;41.58
77205;BME280;67992;46.618;18.850;2023-02-22T08:28:01;100389.00;;;15.47;41.61
77205;BME280;67992;46.618;18.850;2023-02-22T08:30:32;100393.38;;;15.48;41.84
77205;BME280;67992;46.618;18.850;2023-02-22T08:33:00;100397.22;;;15.45;42.27
77205;BME280;67992;46.618;18.850;2023-02-22T08:35:27;100391.00;;;15.45;42.06
77205;BME280;67992;46.618;18.850;2023-02-22T08:38:03;100392.84;;;15.44;42.16
77205;BME280;67992;46.618;18.850;2023-02-22T08:40:34;100387.47;;;15.44;41.54
77205;BME280;67992;46.618;18.850;2023-02-22T08:43:03;100392.00;;;15.44;42.14
77205;BME280;67992;46.618;18.850;2023-02-22T08:45:33;100380.78;;;15.40;41.61
77205;BME280;67992;46.618;18.850;2023-02-22T08:48:04;100380.78;;;15.40;42.28
77205;BME280;67992;46.618;18.850;2023-02-22T08:50:36;100380.59;;;15.42;42.10
77205;BME280;67992;46.618;18.850;2023-02-22T08:53:07;100382.28;;;15.43;42.05
77205;BME280;67992;46.618;18.850;2023-02-22T08:55:35;100388.31;;;15.45;41.86
77205;BME280;67992;46.618;18.850;2023-02-22T08:58:03;100377.91;;;15.42;42.45
77205;BME280;67992;46.618;18.850;2023-02-22T09:00:39;100385.00;;;15.51;42.23
77205;BME280;67992;46.618;18.850;2023-02-22T09:03:13;100368.56;;;15.38;42.45
77205;BME280;67992;46.618;18.850;2023-02-22T09:05:40;100391.16;;;15.51;42.28
77205;BME280;67992;46.618;18.850;2023-02-22T09:08:11;100380.13;;;15.46;42.20
77205;BME280;67992;46.618;18.850;2023-02-22T09:10:43;100385.00;;;15.51;42.00
77205;BME280;67992;46.618;18.850;2023-02-22T09:13:13;100384.81;;;15.52;42.01
77205;BME280;67992;46.618;18.850;2023-02-22T09:15:38;100381.28;;;15.52;42.41
77205;BME280;67992;46.618;18.850;2023-02-22T09:18:07;100375.06;;;15.51;42.25
77205;BME280;67992;46.618;18.850;2023-02-22T09:20:36;100379.63;;;15.51;42.36
77205;BME280;67992;46.618;18.850;2023-02-22T09:23:12;100369.06;;;15.49;41.92
77205;BME280;67992;46.618;18.850;2023-02-22T09:25:41;100376.94;;;15.51;42.12
77205;BME280;67992;46.618;18.850;2023-02-22T09:28:10;100377.94;;;15.50;41.82
77205;BME280;67992;46.618;18.850;2023-02-22T09:30:44;100375.44;;;15.48;42.07
77205;BME280;67992;46.618;18.850;2023-02-22T09:33:16;100378.28;;;15.47;42.46
77205;BME280;67992;46.618;18.850;2023-02-22T09:35:46;100379.97;;;15.48;42.21
77205;BME280;67992;46.618;18.850;2023-02-22T09:38:19;100379.13;;;15.47;41.96
77205;BME280;67992;46.618;18.850;2023-02-22T09:40:52;100370.53;;;15.44;42.54
77205;BME280;67992;46.618;18.850;2023-02-22T09:43:52;100370.53;;;15.44;42.44
77205;BME280;67992;46.618;18.850;2023-02-22T09:46:28;100377.59;;;15.45;42.97
77205;BME280;67992;46.618;18.850;2023-02-22T09:49:19;100379.59;;;15.43;42.57
77205;BME280;67992;46.618;18.850;2023-02-22T09:52:00;100377.91;;;15.42;41.95
77205;BME280;67992;46.618;18.850;2023-02-22T09:54:42;100380.59;;;15.42;42.35
77205;BME280;67992;46.618;18.850;2023-02-22T09:57:17;100374.91;;;15.37;43.06
77205;BME280;67992;46.618;18.850;2023-02-22T10:00:20;100381.59;;;15.41;42.45
77205;BME280;67992;46.618;18.850;2023-02-22T10:03:23;100371.22;;;15.38;42.95
77205;BME280;67992;46.618;18.850;2023-02-22T10:06:03;100370.06;;;15.40;42.43
77205;BME280;67992;46.618;18.850;2023-02-22T10:08:33;100371.91;;;15.40;42.61
77205;BME280;67992;46.618;18.850;2023-02-22T10:16:33;100363.53;;;15.35;42.43
77205;BME280;67992;46.618;18.850;2023-02-22T10:19:30;100370.53;;;15.36;42.65
77205;BME280;67992;46.618;18.850;2023-02-22T10:22:33;100365.19;;;15.36;42.41
77205;BME280;67992;46.618;18.850;2023-02-22T10:25:12;100362.84;;;15.33;43.01
77205;BME280;67992;46.618;18.850;2023-02-22T10:30:26;100358.16;;;15.35;42.76
77205;BME280;67992;46.618;18.850;2023-02-22T10:33:06;100349.09;;;15.36;42.97
77205;BME280;67992;46.618;18.850;2023-02-22T10:35:40;100353.63;;;15.35;42.85
77205;BME280;67992;46.618;18.850;2023-02-22T10:40:52;100344.09;;;15.33;42.45
77205;BME280;67992;46.618;18.850;2023-02-22T10:43:20;100345.94;;;15.32;43.31
77205;BME280;67992;46.618;18.850;2023-02-22T10:45:45;100347.59;;;15.33;42.88
77205;BME280;67992;46.618;18.850;2023-02-22T10:48:17;100358.31;;;15.33;42.97
77205;BME280;67992;46.618;18.850;2023-02-22T10:50:44;100350.25;;;15.33;42.95
77205;BME280;67992;46.618;18.850;2023-02-22T10:53:12;100349.59;;;15.31;43.47
77205;BME280;67992;46.618;18.850;2023-02-22T10:56:08;100349.44;;;15.33;43.15
77205;BME280;67992;46.618;18.850;2023-02-22T10:58:46;100343.25;;;15.32;43.52
77205;BME280;67992;46.618;18.850;2023-02-22T11:01:37;100340.56;;;15.32;43.35
77205;BME280;67992;46.618;18.850;2023-02-22T11:06:42;100344.25;;;15.31;43.08
77205;BME280;67992;46.618;18.850;2023-02-22T11:09:16;100347.75;;;15.32;43.43
77205;BME280;67992;46.618;18.850;2023-02-22T11:12:15;100333.50;;;15.31;43.33
77205;BME280;67992;46.618;18.850;2023-02-22T11:14:47;100331.00;;;15.30;43.20
77205;BME280;67992;46.618;18.850;2023-02-22T11:17:18;100334.53;;;15.30;43.31
77205;BME280;67992;46.618;18.850;2023-02-22T11:19:49;100330.16;;;15.29;43.41
77205;BME280;67992;46.618;18.850;2023-02-22T11:22:25;100335.53;;;15.29;43.73
77205;BME280;67992;46.618;18.850;2023-02-22T11:25:00;100332.84;;;15.29;43.24
77205;BME280;67992;46.618;18.850;2023-02-22T11:27:42;100330.34;;;15.28;43.46
77205;BME280;67992;46.618;18.850;2023-02-22T11:30:23;100322.13;;;15.29;43.42
77205;BME280;67992;46.618;18.850;2023-02-22T11:33:09;100311.59;;;15.28;43.29
77205;BME280;67992;46.618;18.850;2023-02-22T11:35:59;100316.09;;;15.27;43.01
77205;BME280;67992;46.618;18.850;2023-02-22T11:38:34;100317.09;;;15.26;43.03
77205;BME280;67992;46.618;18.850;2023-02-22T11:41:20;100307.72;;;15.22;43.20
77205;BME280;67992;46.618;18.850;2023-02-22T11:44:10;100314.25;;;15.28;43.03
77205;BME280;67992;46.618;18.850;2023-02-22T11:46:39;100312.59;;;15.27;43.52
77205;BME280;67992;46.618;18.850;2023-02-22T11:49:12;100314.59;;;15.25;43.91
77205;BME280;67992;46.618;18.850;2023-02-22T11:57:30;100313.44;;;15.27;43.87
77205;BME280;67992;46.618;18.850;2023-02-22T12:16:23;100288.63;;;15.25;43.81
77205;BME280;67992;46.618;18.850;2023-02-22T12:21:52;100290.28;;;15.26;43.34
77205;BME280;67992;46.618;18.850;2023-02-22T12:24:31;100279.44;;;15.19;43.66
77205;BME280;67992;46.618;18.850;2023-02-22T12:27:32;100284.94;;;15.26;43.28
77205;BME280;67992;46.618;18.850;2023-02-22T12:30:04;100283.28;;;15.25;43.30
77205;BME280;67992;46.618;18.850;2023-02-22T12:32:40;100274.19;;;15.26;43.90
77205;BME280;67992;46.618;18.850;2023-02-22T12:35:25;100270.69;;;15.26;43.41
77205;BME280;67992;46.618;18.850;2023-02-22T12:38:00;100274.88;;;15.28;43.40
77205;BME280;67992;46.618;18.850;2023-02-22T12:40:55;100269.69;;;15.27;43.60
77205;BME280;67992;46.618;18.850;2023-02-22T12:46:11;100278.38;;;15.29;43.64
77205;BME280;67992;46.618;18.850;2023-02-22T12:57:10;100262.31;;;15.29;43.83
77205;BME280;67992;46.618;18.850;2023-02-22T13:00:08;100263.16;;;15.29;43.75
77205;BME280;67992;46.618;18.850;2023-02-22T13:02:41;100254.59;;;15.26;44.04
77205;BME280;67992;46.618;18.850;2023-02-22T13:05:15;100247.91;;;15.22;43.56
77205;BME280;67992;46.618;18.850;2023-02-22T13:10:52;100258.97;;;15.27;43.63
77205;BME280;67992;46.618;18.850;2023-02-22T13:13:38;100256.94;;;15.29;43.78
77205;BME280;67992;46.618;18.850;2023-02-22T13:16:34;100257.13;;;15.27;43.36
77205;BME280;67992;46.618;18.850;2023-02-22T13:21:48;100258.78;;;15.28;43.87
77205;BME280;67992;46.618;18.850;2023-02-22T13:24:28;100258.97;;;15.27;43.14
77205;BME280;67992;46.618;18.850;2023-02-22T13:27:42;100257.97;;;15.28;43.89
77205;BME280;67992;46.618;18.850;2023-02-22T13:33:18;100256.94;;;15.29;43.29
77205;BME280;67992;46.618;18.850;2023-02-22T13:36:07;100258.78;;;15.28;44.02
77205;BME280;67992;46.618;18.850;2023-02-22T13:44:03;100250.91;;;15.27;43.94
77205;BME280;67992;46.618;18.850;2023-02-22T13:52:01;100247.25;;;15.28;43.89
77205;BME280;67992;46.618;18.850;2023-02-22T13:54:57;100249.06;;;15.27;43.68
77205;BME280;67992;46.618;18.850;2023-02-22T14:11:06;100235.50;;;15.29;43.49
77205;BME280;67992;46.618;18.850;2023-02-22T14:16:33;100220.91;;;15.23;44.14
77205;BME280;67992;46.618;18.850;2023-02-22T14:19:16;100229.66;;;15.25;43.42
77205;BME280;67992;46.618;18.850;2023-02-22T14:21:56;100231.97;;;15.28;43.56
77205;BME280;67992;46.618;18.850;2023-02-22T14:24:39;100239.00;;;15.29;43.56
77205;BME280;67992;46.618;18.850;2023-02-22T14:27:09;100234.81;;;15.27;43.40
77205;BME280;67992;46.618;18.850;2023-02-22T14:29:54;100229.47;;;15.27;43.33
77205;BME280;67992;46.618;18.850;2023-02-22T14:32:30;100237.31;;;15.28;43.79
77205;BME280;67992;46.618;18.850;2023-02-22T14:35:05;100233.00;;;15.27;43.57
77205;BME280;67992;46.618;18.850;2023-02-22T14:37:34;100231.16;;;15.28;43.81
77205;BME280;67992;46.618;18.850;2023-02-22T14:40:22;100231.16;;;15.28;43.71
77205;BME280;67992;46.618;18.850;2023-02-22T14:45:37;100224.28;;;15.25;43.46
77205;BME280;67992;46.618;18.850;2023-02-22T14:51:27;100226.78;;;15.27;43.79
77205;BME280;67992;46.618;18.850;2023-02-22T14:56:45;100230.31;;;15.27;43.98
77205;BME280;67992;46.618;18.850;2023-02-22T14:59:24;100212.38;;;15.28;44.29
77205;BME280;67992;46.618;18.850;2023-02-22T15:02:11;100214.22;;;15.27;44.22
77205;BME280;67992;46.618;18.850;2023-02-22T15:04:39;100221.25;;;15.28;43.92
77205;BME280;67992;46.618;18.850;2023-02-22T15:07:31;100215.06;;;15.28;44.01
77205;BME280;67992;46.618;18.850;2023-02-22T15:10:26;100201.19;;;15.16;43.89
77205;BME280;67992;46.618;18.850;2023-02-22T15:12:59;100217.91;;;15.26;43.70
77205;BME280;67992;46.618;18.850;2023-02-22T15:15:41;100217.91;;;15.26;44.03
77205;BME280;67992;46.618;18.850;2023-02-22T15:18:34;100216.25;;;15.25;44.15
77205;BME280;67992;46.618;18.850;2023-02-22T15:21:06;100213.56;;;15.25;43.79